Hertford, United Kingdom
Current Conditions -  °F | °C
As of 9:50 AM on Sunday 21 Dec 2014 (Local Time) from EGGW Reporting Station
Broken Clouds Broken Clouds  
Wind Chill: 37°   Ceiling: 1200
Heat Index: 45°   Visibility: 6mi
Dew Point: 43°   Wind: 18mph
Humidity: 93%   Direction: 240°WSW
Pressure: 30.3"   Gusts: NA
Location:  51.8°N, 0.08°W
Report Text: EGGW 210950Z 24016KT 9999 BKN012 BKN029 07/06 Q1026
Loading
Personal Weather Stations






























Interactive Weather Map New forecast layout! Learn more

10-Day Weather Forecast

Advertisements
Track Severe Weather on mobile